createdAt,value
2022-08-21T00:06:15.476Z,978.94
2022-08-21T00:12:47.719Z,978.9
2022-08-21T00:19:22.844Z,978.82
2022-08-21T00:25:52.849Z,978.75
2022-08-21T00:32:23.841Z,978.78
2022-08-21T00:39:01.850Z,978.75
2022-08-21T00:45:37.442Z,978.74
2022-08-21T00:52:10.864Z,978.76
2022-08-21T00:58:58.960Z,978.71
2022-08-21T01:05:47.911Z,978.7
2022-08-21T01:12:17.858Z,978.7
2022-08-21T01:18:57.864Z,978.69
2022-08-21T01:25:32.665Z,978.68
2022-08-21T01:32:08.908Z,978.71
2022-08-21T01:38:41.177Z,978.67
2022-08-21T01:45:06.847Z,978.66
2022-08-21T01:51:38.970Z,978.69
2022-08-21T01:58:05.902Z,978.64
2022-08-21T02:04:45.581Z,978.58
2022-08-21T02:11:11.143Z,978.62
2022-08-21T02:17:50.299Z,978.64
2022-08-21T02:24:31.985Z,978.6
2022-08-21T02:31:02.719Z,978.57
2022-08-21T02:37:38.882Z,978.59
2022-08-21T02:44:19.927Z,978.57
2022-08-21T02:50:47.963Z,978.46
2022-08-21T02:57:20.726Z,978.39
2022-08-21T03:03:52.163Z,978.44
2022-08-21T03:10:19.895Z,978.34
2022-08-21T03:17:00.089Z,978.26
2022-08-21T03:23:34.557Z,978.23
2022-08-21T03:30:06.993Z,978.31
2022-08-21T03:36:43.876Z,978.32
2022-08-21T03:43:08.355Z,978.35
2022-08-21T03:49:46.897Z,978.36
2022-08-21T03:56:19.942Z,978.39
2022-08-21T04:02:56.905Z,978.43
2022-08-21T04:09:38.831Z,978.43
2022-08-21T04:16:12.188Z,978.54
2022-08-21T04:22:43.975Z,978.56
2022-08-21T04:29:20.004Z,978.61
2022-08-21T04:35:54.770Z,978.67
2022-08-21T04:42:24.817Z,978.66
2022-08-21T04:49:24.264Z,978.67
2022-08-21T04:56:27.352Z,978.74
2022-08-21T05:03:09.973Z,978.69
2022-08-21T05:09:48.195Z,978.72
2022-08-21T05:16:36.527Z,978.73
2022-08-21T05:23:01.521Z,978.72
2022-08-21T05:29:38.002Z,978.73
2022-08-21T05:36:16.419Z,978.77
2022-08-21T05:42:39.768Z,978.76
2022-08-21T05:49:11.023Z,978.72
2022-08-21T05:55:47.337Z,978.75
2022-08-21T06:02:10.943Z,978.71
2022-08-21T06:08:49.125Z,978.71
2022-08-21T06:15:14.417Z,978.63
2022-08-21T06:21:45.437Z,978.59
2022-08-21T06:28:10.935Z,978.54
2022-08-21T06:34:42.038Z,978.57
2022-08-21T06:41:10.941Z,978.52
2022-08-21T06:47:42.041Z,978.54
2022-08-21T06:54:12.011Z,978.51
2022-08-21T07:00:43.259Z,978.44
2022-08-21T07:07:11.906Z,978.43
2022-08-21T07:13:47.920Z,978.45
2022-08-21T07:20:14.853Z,978.45
2022-08-21T07:26:54.458Z,978.39
2022-08-21T07:33:32.355Z,978.28
2022-08-21T07:40:13.013Z,978.25
2022-08-21T07:46:40.933Z,978.21
2022-08-21T07:53:14.074Z,978.17
2022-08-21T07:59:44.450Z,978.11
2022-08-21T08:06:18.985Z,978.06
2022-08-21T08:12:57.279Z,978.1
2022-08-21T08:19:38.076Z,978.08
2022-08-21T08:26:12.989Z,978.08
2022-08-21T08:32:44.079Z,978.07
2022-08-21T08:39:26.677Z,978.05
2022-08-21T08:46:28.040Z,978.02
2022-08-21T08:53:40.150Z,977.97
2022-08-21T09:00:34.447Z,977.91
2022-08-21T09:07:15.560Z,977.87
2022-08-21T09:14:32.923Z,977.88
2022-08-21T09:21:42.113Z,977.82
2022-08-21T09:28:46.441Z,977.82
2022-08-21T09:35:43.266Z,977.74
2022-08-21T09:42:48.072Z,977.66
2022-08-21T09:49:27.023Z,977.64
2022-08-21T09:56:25.087Z,977.57
2022-08-21T10:03:14.139Z,977.5
2022-08-21T10:09:57.047Z,977.49
2022-08-21T10:16:55.107Z,977.4
2022-08-21T10:24:31.308Z,977.35
2022-08-21T10:31:35.288Z,977.31
2022-08-21T10:39:02.487Z,977.27
2022-08-21T10:46:09.129Z,977.23
2022-08-21T10:53:18.153Z,977.15
2022-08-21T11:00:16.299Z,977.1
2022-08-21T11:07:35.045Z,977.06
2022-08-21T11:14:54.171Z,977.02
2022-08-21T11:22:01.669Z,976.97
2022-08-21T11:29:03.353Z,976.92
2022-08-21T11:36:15.780Z,976.93
2022-08-21T11:43:21.033Z,976.88
2022-08-21T11:50:36.851Z,976.89
2022-08-21T11:57:34.218Z,976.9
2022-08-21T12:04:47.726Z,976.94
2022-08-21T12:11:48.515Z,976.83
2022-08-21T12:18:53.671Z,976.83
2022-08-21T12:26:18.220Z,976.79
2022-08-21T12:33:32.051Z,976.76
2022-08-21T12:40:43.439Z,976.74
2022-08-21T12:48:00.699Z,976.72
2022-08-21T12:55:22.220Z,976.63
2022-08-21T13:02:42.605Z,976.59
2022-08-21T13:09:57.558Z,976.51
2022-08-21T13:17:03.561Z,976.42
2022-08-21T13:23:49.804Z,976.38
2022-08-21T13:30:40.168Z,976.32
2022-08-21T13:37:26.632Z,976.25
2022-08-21T13:44:21.128Z,976.19
2022-08-21T13:51:13.157Z,976.15
2022-08-21T13:57:53.775Z,976.18
2022-08-21T14:05:07.289Z,976.13
2022-08-21T14:12:05.238Z,976.04
2022-08-21T14:19:32.318Z,975.98
2022-08-21T14:26:36.417Z,976.03
2022-08-21T14:33:28.294Z,975.94
2022-08-21T14:40:04.886Z,975.93
2022-08-21T14:46:56.172Z,975.87
2022-08-21T14:53:26.292Z,975.89
2022-08-21T15:00:02.423Z,975.89
2022-08-21T15:06:35.082Z,975.81
2022-08-21T15:12:56.595Z,975.74
2022-08-21T15:19:30.266Z,975.75
2022-08-21T15:26:03.766Z,975.72
2022-08-21T15:32:36.699Z,975.63
2022-08-21T15:39:12.189Z,975.66
2022-08-21T15:45:44.730Z,975.66
2022-08-21T15:52:11.319Z,975.62
2022-08-21T15:58:52.362Z,975.57
2022-08-21T16:05:43.602Z,975.53
2022-08-21T16:12:11.495Z,975.52
2022-08-21T16:19:04.867Z,975.53
2022-08-21T16:25:41.258Z,975.48
2022-08-21T16:32:15.341Z,975.4
2022-08-21T16:38:47.421Z,975.39
2022-08-21T16:45:21.563Z,975.34
2022-08-21T16:51:45.147Z,975.31
2022-08-21T16:58:16.305Z,975.38
2022-08-21T17:04:56.859Z,975.39
2022-08-21T17:11:38.512Z,975.37
2022-08-21T17:18:16.223Z,975.36
2022-08-21T17:24:55.029Z,975.34
2022-08-21T17:31:33.651Z,975.38
2022-08-21T17:38:04.615Z,975.46
2022-08-21T17:44:47.203Z,975.53
2022-08-21T17:51:16.388Z,975.6
2022-08-21T17:57:45.822Z,975.7
2022-08-21T18:04:20.649Z,975.75
2022-08-21T18:10:46.371Z,975.78
2022-08-21T18:17:23.287Z,975.79
2022-08-21T18:23:57.690Z,975.82
2022-08-21T18:30:35.415Z,975.81
2022-08-21T18:37:21.411Z,975.85
2022-08-21T18:43:54.411Z,975.91
2022-08-21T18:50:30.421Z,975.92
2022-08-21T18:57:09.394Z,975.92
2022-08-21T19:03:44.441Z,975.96
2022-08-21T19:10:24.783Z,976
2022-08-21T19:16:58.444Z,975.97
2022-08-21T19:23:30.434Z,975.95
2022-08-21T19:30:14.435Z,975.98
2022-08-21T19:36:49.291Z,976.03
2022-08-21T19:43:14.488Z,976.07
2022-08-21T19:49:55.813Z,976.06
2022-08-21T19:56:26.449Z,976.07
2022-08-21T20:03:02.681Z,976.08
2022-08-21T20:09:32.906Z,976.1
2022-08-21T20:16:11.741Z,976.13
2022-08-21T20:22:41.390Z,976.14
2022-08-21T20:29:07.875Z,976.19
2022-08-21T20:35:32.861Z,976.38
2022-08-21T20:42:01.353Z,976.44
2022-08-21T20:48:50.006Z,976.45
2022-08-21T20:55:53.839Z,976.52
2022-08-21T21:02:52.425Z,976.6
2022-08-21T21:09:52.957Z,976.5
2022-08-21T21:17:06.488Z,976.43
2022-08-21T21:24:54.147Z,976.39
2022-08-21T21:32:08.630Z,976.43
2022-08-21T21:39:21.451Z,976.49
2022-08-21T21:46:24.740Z,976.5
2022-08-21T21:53:32.962Z,976.45
2022-08-21T22:00:52.335Z,976.47
2022-08-21T22:07:53.762Z,976.46
2022-08-21T22:14:57.609Z,976.46
2022-08-21T22:22:15.131Z,976.51
2022-08-21T22:29:18.523Z,976.54
2022-08-21T22:36:11.264Z,976.53
2022-08-21T22:43:09.090Z,976.55
2022-08-21T22:50:24.864Z,976.61
2022-08-21T22:57:25.191Z,976.6
2022-08-21T23:04:24.962Z,976.56
2022-08-21T23:11:17.972Z,976.55
2022-08-21T23:18:21.477Z,976.57
2022-08-21T23:25:10.592Z,976.57
2022-08-21T23:32:16.812Z,976.55
2022-08-21T23:39:25.041Z,976.5
2022-08-21T23:46:40.100Z,976.49
2022-08-21T23:53:51.829Z,976.42
